sensor_id;sensor_type;location;lat;lon;timestamp;pressure;altitude;pressure_sealevel;temperature
74539;BMP180;66042;51.090;-115.340;2023-05-16T00:02:03;86850.20;;;50.42
74539;BMP180;66042;51.090;-115.340;2023-05-16T00:04:30;86847.40;;;49.06
74539;BMP180;66042;51.090;-115.340;2023-05-16T00:06:58;86844.20;;;48.70
74539;BMP180;66042;51.090;-115.340;2023-05-16T00:09:25;86842.00;;;49.32
74539;BMP180;66042;51.090;-115.340;2023-05-16T00:11:52;86842.80;;;49.60
74539;BMP180;66042;51.090;-115.340;2023-05-16T00:14:20;86848.80;;;48.52
74539;BMP180;66042;51.090;-115.340;2023-05-16T00:16:46;86844.00;;;47.70
74539;BMP180;66042;51.090;-115.340;2023-05-16T00:19:13;86837.20;;;48.08
74539;BMP180;66042;51.090;-115.340;2023-05-16T00:21:40;86838.20;;;48.06
74539;BMP180;66042;51.090;-115.340;2023-05-16T00:24:07;86840.00;;;47.16
74539;BMP180;66042;51.090;-115.340;2023-05-16T00:26:33;86844.40;;;45.98
74539;BMP180;66042;51.090;-115.340;2023-05-16T00:29:00;86836.20;;;45.30
74539;BMP180;66042;51.090;-115.340;2023-05-16T00:31:27;86837.00;;;45.40
74539;BMP180;66042;51.090;-115.340;2023-05-16T00:33:54;86834.00;;;44.92
74539;BMP180;66042;51.090;-115.340;2023-05-16T00:36:20;86834.60;;;44.16
74539;BMP180;66042;51.090;-115.340;2023-05-16T00:38:47;86826.00;;;43.52
74539;BMP180;66042;51.090;-115.340;2023-05-16T00:41:15;86825.00;;;43.22
74539;BMP180;66042;51.090;-115.340;2023-05-16T00:43:42;86824.20;;;42.80
74539;BMP180;66042;51.090;-115.340;2023-05-16T00:46:09;86824.20;;;42.20
74539;BMP180;66042;51.090;-115.340;2023-05-16T00:48:36;86826.20;;;41.34
74539;BMP180;66042;51.090;-115.340;2023-05-16T00:51:03;86828.40;;;40.40
74539;BMP180;66042;51.090;-115.340;2023-05-16T00:53:35;86826.80;;;39.54
74539;BMP180;66042;51.090;-115.340;2023-05-16T00:56:02;86826.60;;;38.86
74539;BMP180;66042;51.090;-115.340;2023-05-16T00:58:31;86822.00;;;38.26
74539;BMP180;66042;51.090;-115.340;2023-05-16T01:01:00;86815.40;;;37.72
74539;BMP180;66042;51.090;-115.340;2023-05-16T01:03:29;86814.60;;;37.26
74539;BMP180;66042;51.090;-115.340;2023-05-16T01:05:57;86813.80;;;36.86
74539;BMP180;66042;51.090;-115.340;2023-05-16T01:08:24;86808.00;;;36.48
74539;BMP180;66042;51.090;-115.340;2023-05-16T01:23:04;86792.20;;;36.94
74539;BMP180;66042;51.090;-115.340;2023-05-16T01:25:56;86790.60;;;37.84
74539;BMP180;66042;51.090;-115.340;2023-05-16T01:28:24;86791.00;;;38.70
74539;BMP180;66042;51.090;-115.340;2023-05-16T01:30:52;86789.40;;;39.44
74539;BMP180;66042;51.090;-115.340;2023-05-16T01:33:18;86797.60;;;39.62
74539;BMP180;66042;51.090;-115.340;2023-05-16T01:36:23;86790.20;;;39.04
74539;BMP180;66042;51.090;-115.340;2023-05-16T01:39:21;86796.80;;;38.20
74539;BMP180;66042;51.090;-115.340;2023-05-16T01:42:11;86793.80;;;37.28
74539;BMP180;66042;51.090;-115.340;2023-05-16T01:44:59;86792.00;;;36.56
74539;BMP180;66042;51.090;-115.340;2023-05-16T01:47:29;86791.40;;;35.94
74539;BMP180;66042;51.090;-115.340;2023-05-16T01:50:14;86791.20;;;35.44
74539;BMP180;66042;51.090;-115.340;2023-05-16T01:55:27;86787.00;;;34.40
74539;BMP180;66042;51.090;-115.340;2023-05-16T01:57:58;86783.20;;;33.90
74539;BMP180;66042;51.090;-115.340;2023-05-16T02:00:25;86781.20;;;33.48
74539;BMP180;66042;51.090;-115.340;2023-05-16T02:02:52;86777.80;;;33.10
74539;BMP180;66042;51.090;-115.340;2023-05-16T02:05:18;86774.40;;;32.76
74539;BMP180;66042;51.090;-115.340;2023-05-16T02:07:46;86771.40;;;32.40
74539;BMP180;66042;51.090;-115.340;2023-05-16T02:10:13;86770.20;;;32.00
74539;BMP180;66042;51.090;-115.340;2023-05-16T02:12:40;86765.80;;;31.70
74539;BMP180;66042;51.090;-115.340;2023-05-16T02:15:07;86768.80;;;31.40
74539;BMP180;66042;51.090;-115.340;2023-05-16T02:17:35;86762.60;;;31.10
74539;BMP180;66042;51.090;-115.340;2023-05-16T02:20:03;86765.60;;;30.90
74539;BMP180;66042;51.090;-115.340;2023-05-16T02:22:36;86768.00;;;30.60
74539;BMP180;66042;51.090;-115.340;2023-05-16T02:25:08;86765.60;;;30.30
74539;BMP180;66042;51.090;-115.340;2023-05-16T02:27:35;86768.40;;;30.04
74539;BMP180;66042;51.090;-115.340;2023-05-16T02:30:02;86766.40;;;29.80
74539;BMP180;66042;51.090;-115.340;2023-05-16T02:32:34;86764.60;;;29.60
74539;BMP180;66042;51.090;-115.340;2023-05-16T02:35:01;86765.00;;;29.32
74539;BMP180;66042;51.090;-115.340;2023-05-16T02:37:30;86764.20;;;29.02
74539;BMP180;66042;51.090;-115.340;2023-05-16T02:39:56;86769.00;;;28.80
74539;BMP180;66042;51.090;-115.340;2023-05-16T02:42:25;86768.80;;;28.60
74539;BMP180;66042;51.090;-115.340;2023-05-16T02:44:53;86766.40;;;28.30
74539;BMP180;66042;51.090;-115.340;2023-05-16T02:47:20;86768.40;;;28.08
74539;BMP180;66042;51.090;-115.340;2023-05-16T02:49:48;86772.40;;;27.76
74539;BMP180;66042;51.090;-115.340;2023-05-16T02:52:15;86769.80;;;27.50
74539;BMP180;66042;51.090;-115.340;2023-05-16T02:54:42;86768.80;;;27.30
74539;BMP180;66042;51.090;-115.340;2023-05-16T02:57:09;86766.80;;;27.10
74539;BMP180;66042;51.090;-115.340;2023-05-16T02:59:37;86766.00;;;26.90
74539;BMP180;66042;51.090;-115.340;2023-05-16T03:02:04;86764.60;;;26.64
74539;BMP180;66042;51.090;-115.340;2023-05-16T03:04:30;86764.60;;;26.40
74539;BMP180;66042;51.090;-115.340;2023-05-16T03:06:58;86762.40;;;26.20
74539;BMP180;66042;51.090;-115.340;2023-05-16T03:09:25;86768.00;;;26.00
74539;BMP180;66042;51.090;-115.340;2023-05-16T03:11:52;86766.80;;;25.80
74539;BMP180;66042;51.090;-115.340;2023-05-16T03:14:18;86766.80;;;25.60
74539;BMP180;66042;51.090;-115.340;2023-05-16T03:16:46;86765.60;;;25.40
74539;BMP180;66042;51.090;-115.340;2023-05-16T03:19:13;86768.40;;;25.20
74539;BMP180;66042;51.090;-115.340;2023-05-16T03:21:40;86770.20;;;25.00
74539;BMP180;66042;51.090;-115.340;2023-05-16T03:24:07;86766.80;;;24.88
74539;BMP180;66042;51.090;-115.340;2023-05-16T03:26:33;86772.40;;;24.70
74539;BMP180;66042;51.090;-115.340;2023-05-16T03:29:00;86774.00;;;24.50
74539;BMP180;66042;51.090;-115.340;2023-05-16T03:31:27;86779.00;;;24.30
74539;BMP180;66042;51.090;-115.340;2023-05-16T03:33:53;86776.60;;;24.20
74539;BMP180;66042;51.090;-115.340;2023-05-16T03:36:22;86781.00;;;24.00
74539;BMP180;66042;51.090;-115.340;2023-05-16T03:38:50;86786.20;;;23.80
74539;BMP180;66042;51.090;-115.340;2023-05-16T03:41:17;86791.60;;;23.70
74539;BMP180;66042;51.090;-115.340;2023-05-16T03:43:44;86799.60;;;23.50
74539;BMP180;66042;51.090;-115.340;2023-05-16T03:46:11;86802.00;;;23.34
74539;BMP180;66042;51.090;-115.340;2023-05-16T03:48:38;86798.40;;;23.20
74539;BMP180;66042;51.090;-115.340;2023-05-16T03:51:05;86805.00;;;23.10
74539;BMP180;66042;51.090;-115.340;2023-05-16T03:53:31;86800.40;;;22.90
74539;BMP180;66042;51.090;-115.340;2023-05-16T03:55:58;86800.40;;;22.72
74539;BMP180;66042;51.090;-115.340;2023-05-16T03:58:25;86805.80;;;22.60
74539;BMP180;66042;51.090;-115.340;2023-05-16T04:00:52;86806.00;;;22.50
74539;BMP180;66042;51.090;-115.340;2023-05-16T04:03:19;86818.00;;;22.30
74539;BMP180;66042;51.090;-115.340;2023-05-16T04:05:56;86818.60;;;22.20
74539;BMP180;66042;51.090;-115.340;2023-05-16T04:08:23;86818.40;;;22.00
74539;BMP180;66042;51.090;-115.340;2023-05-16T04:10:50;86821.20;;;21.90
74539;BMP180;66042;51.090;-115.340;2023-05-16T04:13:17;86824.20;;;21.80
74539;BMP180;66042;51.090;-115.340;2023-05-16T04:15:44;86828.80;;;21.60
74539;BMP180;66042;51.090;-115.340;2023-05-16T04:18:12;86827.80;;;21.50
74539;BMP180;66042;51.090;-115.340;2023-05-16T04:20:41;86825.80;;;21.32
74539;BMP180;66042;51.090;-115.340;2023-05-16T04:23:09;86825.80;;;21.20
74539;BMP180;66042;51.090;-115.340;2023-05-16T04:25:39;86823.80;;;21.10
74539;BMP180;66042;51.090;-115.340;2023-05-16T04:28:06;86820.80;;;20.94
74539;BMP180;66042;51.090;-115.340;2023-05-16T04:30:32;86817.60;;;20.80
74539;BMP180;66042;51.090;-115.340;2023-05-16T04:32:59;86820.80;;;20.70
74539;BMP180;66042;51.090;-115.340;2023-05-16T04:35:27;86821.20;;;20.60
74539;BMP180;66042;51.090;-115.340;2023-05-16T04:37:54;86815.40;;;20.44
74539;BMP180;66042;51.090;-115.340;2023-05-16T04:40:21;86812.80;;;20.30
74539;BMP180;66042;51.090;-115.340;2023-05-16T04:42:50;86816.80;;;20.20
74539;BMP180;66042;51.090;-115.340;2023-05-16T04:45:18;86816.40;;;20.10
74539;BMP180;66042;51.090;-115.340;2023-05-16T04:47:46;86818.60;;;19.96
74539;BMP180;66042;51.090;-115.340;2023-05-16T04:50:12;86820.60;;;19.80
74539;BMP180;66042;51.090;-115.340;2023-05-16T04:52:40;86821.00;;;19.70
74539;BMP180;66042;51.090;-115.340;2023-05-16T04:55:08;86822.80;;;19.60
74539;BMP180;66042;51.090;-115.340;2023-05-16T04:57:35;86831.80;;;19.40
74539;BMP180;66042;51.090;-115.340;2023-05-16T05:00:01;86826.80;;;19.30
74539;BMP180;66042;51.090;-115.340;2023-05-16T05:02:32;86833.00;;;19.20
74539;BMP180;66042;51.090;-115.340;2023-05-16T05:04:59;86835.60;;;19.10
74539;BMP180;66042;51.090;-115.340;2023-05-16T05:07:26;86838.60;;;19.00
74539;BMP180;66042;51.090;-115.340;2023-05-16T05:09:54;86841.00;;;18.90
74539;BMP180;66042;51.090;-115.340;2023-05-16T05:12:24;86838.00;;;18.80
74539;BMP180;66042;51.090;-115.340;2023-05-16T05:14:53;86838.60;;;18.70
74539;BMP180;66042;51.090;-115.340;2023-05-16T05:17:21;86836.40;;;18.60
74539;BMP180;66042;51.090;-115.340;2023-05-16T05:19:48;86837.60;;;18.52
74539;BMP180;66042;51.090;-115.340;2023-05-16T05:22:15;86841.20;;;18.50
74539;BMP180;66042;51.090;-115.340;2023-05-16T05:24:42;86842.00;;;18.40
74539;BMP180;66042;51.090;-115.340;2023-05-16T05:27:09;86850.40;;;18.40
74539;BMP180;66042;51.090;-115.340;2023-05-16T05:29:36;86849.60;;;18.30
74539;BMP180;66042;51.090;-115.340;2023-05-16T05:32:03;86851.20;;;18.26
74539;BMP180;66042;51.090;-115.340;2023-05-16T05:34:30;86849.80;;;18.20
74539;BMP180;66042;51.090;-115.340;2023-05-16T05:36:58;86854.80;;;18.10
74539;BMP180;66042;51.090;-115.340;2023-05-16T05:39:25;86851.40;;;18.00
74539;BMP180;66042;51.090;-115.340;2023-05-16T05:41:52;86853.60;;;17.90
74539;BMP180;66042;51.090;-115.340;2023-05-16T05:44:18;86851.60;;;17.90
74539;BMP180;66042;51.090;-115.340;2023-05-16T05:46:46;86853.00;;;17.80
74539;BMP180;66042;51.090;-115.340;2023-05-16T05:49:12;86853.00;;;17.70
74539;BMP180;66042;51.090;-115.340;2023-05-16T05:51:39;86856.40;;;17.70
74539;BMP180;66042;51.090;-115.340;2023-05-16T05:54:06;86855.80;;;17.60
74539;BMP180;66042;51.090;-115.340;2023-05-16T05:56:33;86857.20;;;17.60
74539;BMP180;66042;51.090;-115.340;2023-05-16T05:59:00;86855.80;;;17.50
74539;BMP180;66042;51.090;-115.340;2023-05-16T06:01:27;86859.00;;;17.42
74539;BMP180;66042;51.090;-115.340;2023-05-16T06:03:55;86861.60;;;17.40
74539;BMP180;66042;51.090;-115.340;2023-05-16T06:06:22;86862.40;;;17.30
74539;BMP180;66042;51.090;-115.340;2023-05-16T06:08:49;86860.40;;;17.30
74539;BMP180;66042;51.090;-115.340;2023-05-16T06:11:15;86858.80;;;17.20
74539;BMP180;66042;51.090;-115.340;2023-05-16T06:13:43;86859.40;;;17.20
74539;BMP180;66042;51.090;-115.340;2023-05-16T06:16:09;86863.60;;;17.10
74539;BMP180;66042;51.090;-115.340;2023-05-16T06:18:37;86864.20;;;17.10
74539;BMP180;66042;51.090;-115.340;2023-05-16T06:21:04;86867.80;;;17.02
74539;BMP180;66042;51.090;-115.340;2023-05-16T06:23:32;86867.80;;;17.00
74539;BMP180;66042;51.090;-115.340;2023-05-16T06:26:00;86871.40;;;16.90
74539;BMP180;66042;51.090;-115.340;2023-05-16T06:28:27;86876.20;;;16.90
74539;BMP180;66042;51.090;-115.340;2023-05-16T06:30:53;86873.00;;;16.80
74539;BMP180;66042;51.090;-115.340;2023-05-16T06:33:20;86875.00;;;16.80
74539;BMP180;66042;51.090;-115.340;2023-05-16T06:35:47;86877.20;;;16.70
74539;BMP180;66042;51.090;-115.340;2023-05-16T06:38:18;86884.40;;;16.70
74539;BMP180;66042;51.090;-115.340;2023-05-16T06:40:45;86882.00;;;16.70
74539;BMP180;66042;51.090;-115.340;2023-05-16T06:43:12;86881.40;;;16.70
74539;BMP180;66042;51.090;-115.340;2023-05-16T06:45:39;86883.80;;;16.64
74539;BMP180;66042;51.090;-115.340;2023-05-16T06:48:07;86879.40;;;16.60
74539;BMP180;66042;51.090;-115.340;2023-05-16T06:50:33;86885.00;;;16.60
74539;BMP180;66042;51.090;-115.340;2023-05-16T06:53:03;86884.00;;;16.60
74539;BMP180;66042;51.090;-115.340;2023-05-16T06:55:33;86883.80;;;16.60
74539;BMP180;66042;51.090;-115.340;2023-05-16T06:58:00;86889.40;;;16.56
74539;BMP180;66042;51.090;-115.340;2023-05-16T07:00:27;86890.00;;;16.50
74539;BMP180;66042;51.090;-115.340;2023-05-16T07:02:54;86891.00;;;16.50
74539;BMP180;66042;51.090;-115.340;2023-05-16T07:05:21;86895.40;;;16.40
74539;BMP180;66042;51.090;-115.340;2023-05-16T07:07:48;86894.80;;;16.40
74539;BMP180;66042;51.090;-115.340;2023-05-16T07:10:15;86899.00;;;16.40
74539;BMP180;66042;51.090;-115.340;2023-05-16T07:12:42;86900.80;;;16.30
74539;BMP180;66042;51.090;-115.340;2023-05-16T07:15:09;86904.80;;;16.30
74539;BMP180;66042;51.090;-115.340;2023-05-16T07:17:36;86903.40;;;16.30
74539;BMP180;66042;51.090;-115.340;2023-05-16T07:20:04;86908.60;;;16.20
74539;BMP180;66042;51.090;-115.340;2023-05-16T07:22:31;86911.20;;;16.20
74539;BMP180;66042;51.090;-115.340;2023-05-16T07:24:58;86911.40;;;16.10
74539;BMP180;66042;51.090;-115.340;2023-05-16T07:27:27;86910.00;;;16.10
74539;BMP180;66042;51.090;-115.340;2023-05-16T07:29:54;86909.80;;;16.00
74539;BMP180;66042;51.090;-115.340;2023-05-16T07:32:21;86908.00;;;15.90
74539;BMP180;66042;51.090;-115.340;2023-05-16T07:34:48;86910.00;;;15.90
74539;BMP180;66042;51.090;-115.340;2023-05-16T07:37:16;86906.80;;;15.80
74539;BMP180;66042;51.090;-115.340;2023-05-16T07:39:44;86913.40;;;15.80
74539;BMP180;66042;51.090;-115.340;2023-05-16T07:42:11;86913.40;;;15.80
74539;BMP180;66042;51.090;-115.340;2023-05-16T07:44:38;86914.20;;;15.70
74539;BMP180;66042;51.090;-115.340;2023-05-16T07:47:04;86917.60;;;15.70
74539;BMP180;66042;51.090;-115.340;2023-05-16T07:49:32;86918.00;;;15.70
74539;BMP180;66042;51.090;-115.340;2023-05-16T07:51:59;86916.20;;;15.70
74539;BMP180;66042;51.090;-115.340;2023-05-16T07:54:26;86921.80;;;15.70
74539;BMP180;66042;51.090;-115.340;2023-05-16T07:56:53;86923.60;;;15.60
74539;BMP180;66042;51.090;-115.340;2023-05-16T07:59:20;86919.60;;;15.58
74539;BMP180;66042;51.090;-115.340;2023-05-16T08:01:48;86920.20;;;15.50
74539;BMP180;66042;51.090;-115.340;2023-05-16T08:04:15;86919.80;;;15.50
74539;BMP180;66042;51.090;-115.340;2023-05-16T08:06:42;86918.40;;;15.50
74539;BMP180;66042;51.090;-115.340;2023-05-16T08:09:08;86918.80;;;15.50
74539;BMP180;66042;51.090;-115.340;2023-05-16T08:11:35;86920.40;;;15.40
74539;BMP180;66042;51.090;-115.340;2023-05-16T08:14:02;86925.60;;;15.40
74539;BMP180;66042;51.090;-115.340;2023-05-16T08:16:29;86926.60;;;15.40
74539;BMP180;66042;51.090;-115.340;2023-05-16T08:18:56;86929.60;;;15.40
74539;BMP180;66042;51.090;-115.340;2023-05-16T08:21:23;86931.60;;;15.30
74539;BMP180;66042;51.090;-115.340;2023-05-16T08:23:51;86934.60;;;15.30
74539;BMP180;66042;51.090;-115.340;2023-05-16T08:26:18;86936.40;;;15.30
74539;BMP180;66042;51.090;-115.340;2023-05-16T08:28:45;86936.80;;;15.20
74539;BMP180;66042;51.090;-115.340;2023-05-16T08:31:11;86945.00;;;15.20
74539;BMP180;66042;51.090;-115.340;2023-05-16T08:33:39;86941.80;;;15.10
74539;BMP180;66042;51.090;-115.340;2023-05-16T08:36:05;86942.20;;;15.10
74539;BMP180;66042;51.090;-115.340;2023-05-16T08:38:32;86942.40;;;15.10
74539;BMP180;66042;51.090;-115.340;2023-05-16T08:40:59;86944.20;;;15.00
74539;BMP180;66042;51.090;-115.340;2023-05-16T08:43:27;86944.60;;;15.00
74539;BMP180;66042;51.090;-115.340;2023-05-16T08:45:54;86941.20;;;15.00
74539;BMP180;66042;51.090;-115.340;2023-05-16T08:48:23;86945.00;;;15.00
74539;BMP180;66042;51.090;-115.340;2023-05-16T08:50:51;86946.00;;;15.00
74539;BMP180;66042;51.090;-115.340;2023-05-16T08:53:25;86947.60;;;14.96
74539;BMP180;66042;51.090;-115.340;2023-05-16T08:55:55;86950.00;;;14.90
74539;BMP180;66042;51.090;-115.340;2023-05-16T08:58:22;86951.00;;;14.90
74539;BMP180;66042;51.090;-115.340;2023-05-16T09:00:50;86954.40;;;14.90
74539;BMP180;66042;51.090;-115.340;2023-05-16T09:03:18;86950.60;;;14.90
74539;BMP180;66042;51.090;-115.340;2023-05-16T09:05:46;86951.20;;;14.80
74539;BMP180;66042;51.090;-115.340;2023-05-16T09:08:14;86954.40;;;14.70
74539;BMP180;66042;51.090;-115.340;2023-05-16T09:10:41;86952.60;;;14.60
74539;BMP180;66042;51.090;-115.340;2023-05-16T09:13:09;86953.40;;;14.60
74539;BMP180;66042;51.090;-115.340;2023-05-16T09:15:36;86949.60;;;14.50
74539;BMP180;66042;51.090;-115.340;2023-05-16T09:18:02;86948.60;;;14.40
74539;BMP180;66042;51.090;-115.340;2023-05-16T09:20:30;86950.20;;;14.40
74539;BMP180;66042;51.090;-115.340;2023-05-16T09:22:59;86950.40;;;14.30
74539;BMP180;66042;51.090;-115.340;2023-05-16T09:25:28;86955.40;;;14.30
74539;BMP180;66042;51.090;-115.340;2023-05-16T09:28:00;86953.60;;;14.20
74539;BMP180;66042;51.090;-115.340;2023-05-16T09:30:32;86953.60;;;14.20
74539;BMP180;66042;51.090;-115.340;2023-05-16T09:33:00;86949.20;;;14.20
74539;BMP180;66042;51.090;-115.340;2023-05-16T09:35:27;86952.80;;;14.10
74539;BMP180;66042;51.090;-115.340;2023-05-16T09:37:53;86949.60;;;14.10
74539;BMP180;66042;51.090;-115.340;2023-05-16T09:40:23;86959.60;;;14.00
74539;BMP180;66042;51.090;-115.340;2023-05-16T09:43:04;86957.40;;;14.00
74539;BMP180;66042;51.090;-115.340;2023-05-16T09:45:32;86955.80;;;14.00
74539;BMP180;66042;51.090;-115.340;2023-05-16T09:48:10;86957.80;;;14.00
74539;BMP180;66042;51.090;-115.340;2023-05-16T09:50:52;86959.60;;;14.00
74539;BMP180;66042;51.090;-115.340;2023-05-16T09:53:31;86962.20;;;14.00
74539;BMP180;66042;51.090;-115.340;2023-05-16T09:56:06;86964.20;;;14.00
74539;BMP180;66042;51.090;-115.340;2023-05-16T09:58:36;86962.20;;;13.92
74539;BMP180;66042;51.090;-115.340;2023-05-16T10:01:05;86965.80;;;13.90
74539;BMP180;66042;51.090;-115.340;2023-05-16T10:03:40;86966.40;;;13.90
74539;BMP180;66042;51.090;-115.340;2023-05-16T10:06:08;86968.40;;;13.90
74539;BMP180;66042;51.090;-115.340;2023-05-16T10:08:37;86974.20;;;13.90
74539;BMP180;66042;51.090;-115.340;2023-05-16T10:11:07;86969.80;;;13.90
74539;BMP180;66042;51.090;-115.340;2023-05-16T10:13:36;86973.00;;;13.80
74539;BMP180;66042;51.090;-115.340;2023-05-16T10:16:10;86973.80;;;13.80
74539;BMP180;66042;51.090;-115.340;2023-05-16T10:18:38;86977.00;;;13.70
74539;BMP180;66042;51.090;-115.340;2023-05-16T10:21:12;86978.40;;;13.70
74539;BMP180;66042;51.090;-115.340;2023-05-16T10:23:43;86979.00;;;13.66
74539;BMP180;66042;51.090;-115.340;2023-05-16T10:26:11;86977.40;;;13.60
74539;BMP180;66042;51.090;-115.340;2023-05-16T10:28:41;86978.40;;;13.52
74539;BMP180;66042;51.090;-115.340;2023-05-16T10:31:10;86979.60;;;13.50
74539;BMP180;66042;51.090;-115.340;2023-05-16T10:33:38;86980.40;;;13.50
74539;BMP180;66042;51.090;-115.340;2023-05-16T10:36:08;86981.20;;;13.40
74539;BMP180;66042;51.090;-115.340;2023-05-16T10:38:36;86984.00;;;13.40
74539;BMP180;66042;51.090;-115.340;2023-05-16T10:41:06;86989.40;;;13.38
74539;BMP180;66042;51.090;-115.340;2023-05-16T10:43:33;86989.40;;;13.32
74539;BMP180;66042;51.090;-115.340;2023-05-16T10:46:06;86986.20;;;13.30
74539;BMP180;66042;51.090;-115.340;2023-05-16T10:48:39;86983.40;;;13.30
74539;BMP180;66042;51.090;-115.340;2023-05-16T10:53:54;86986.20;;;13.14
74539;BMP180;66042;51.090;-115.340;2023-05-16T10:56:25;86983.80;;;13.10
74539;BMP180;66042;51.090;-115.340;2023-05-16T10:58:53;86983.00;;;13.06
74539;BMP180;66042;51.090;-115.340;2023-05-16T11:01:26;86981.80;;;13.00
74539;BMP180;66042;51.090;-115.340;2023-05-16T11:06:31;86982.00;;;13.00
74539;BMP180;66042;51.090;-115.340;2023-05-16T11:11:53;86983.80;;;13.00
74539;BMP180;66042;51.090;-115.340;2023-05-16T11:14:43;86986.20;;;12.90
74539;BMP180;66042;51.090;-115.340;2023-05-16T11:17:20;86988.20;;;12.90
74539;BMP180;66042;51.090;-115.340;2023-05-16T11:19:57;86995.20;;;12.90
74539;BMP180;66042;51.090;-115.340;2023-05-16T11:22:38;86992.20;;;12.88
74539;BMP180;66042;51.090;-115.340;2023-05-16T11:25:09;87004.40;;;12.82
74539;BMP180;66042;51.090;-115.340;2023-05-16T11:27:46;87009.40;;;12.80
74539;BMP180;66042;51.090;-115.340;2023-05-16T11:30:16;87013.40;;;12.80
74539;BMP180;66042;51.090;-115.340;2023-05-16T11:32:46;87010.00;;;12.70
74539;BMP180;66042;51.090;-115.340;2023-05-16T11:35:17;87011.40;;;12.70
74539;BMP180;66042;51.090;-115.340;2023-05-16T11:37:46;87012.00;;;12.70
74539;BMP180;66042;51.090;-115.340;2023-05-16T11:40:13;87006.60;;;12.60
74539;BMP180;66042;51.090;-115.340;2023-05-16T11:42:46;87012.60;;;12.60
74539;BMP180;66042;51.090;-115.340;2023-05-16T11:45:19;87011.00;;;12.60
74539;BMP180;66042;51.090;-115.340;2023-05-16T11:47:51;87013.80;;;12.56
74539;BMP180;66042;51.090;-115.340;2023-05-16T11:50:20;87014.00;;;12.50
74539;BMP180;66042;51.090;-115.340;2023-05-16T11:52:50;87014.80;;;12.50
74539;BMP180;66042;51.090;-115.340;2023-05-16T11:55:26;87015.60;;;12.50
74539;BMP180;66042;51.090;-115.340;2023-05-16T11:57:53;87018.60;;;12.40
74539;BMP180;66042;51.090;-115.340;2023-05-16T12:00:22;87019.60;;;12.40
74539;BMP180;66042;51.090;-115.340;2023-05-16T12:02:52;87023.20;;;12.40
74539;BMP180;66042;51.090;-115.340;2023-05-16T12:05:20;87019.60;;;12.40
74539;BMP180;66042;51.090;-115.340;2023-05-16T12:07:53;87022.80;;;12.38
74539;BMP180;66042;51.090;-115.340;2023-05-16T12:10:20;87023.40;;;12.30
74539;BMP180;66042;51.090;-115.340;2023-05-16T12:12:52;87022.80;;;12.30
74539;BMP180;66042;51.090;-115.340;2023-05-16T12:15:20;87030.60;;;12.30
74539;BMP180;66042;51.090;-115.340;2023-05-16T12:17:47;87030.60;;;12.30
74539;BMP180;66042;51.090;-115.340;2023-05-16T12:20:15;87032.20;;;12.22
74539;BMP180;66042;51.090;-115.340;2023-05-16T12:22:44;87036.80;;;12.20
74539;BMP180;66042;51.090;-115.340;2023-05-16T12:25:29;87036.20;;;12.20
74539;BMP180;66042;51.090;-115.340;2023-05-16T12:28:03;87034.20;;;12.10
74539;BMP180;66042;51.090;-115.340;2023-05-16T12:30:32;87029.60;;;12.10
74539;BMP180;66042;51.090;-115.340;2023-05-16T12:33:18;87033.20;;;12.10
74539;BMP180;66042;51.090;-115.340;2023-05-16T12:35:45;87039.80;;;12.00
74539;BMP180;66042;51.090;-115.340;2023-05-16T12:38:14;87043.60;;;12.00
74539;BMP180;66042;51.090;-115.340;2023-05-16T12:40:43;87040.20;;;12.00
74539;BMP180;66042;51.090;-115.340;2023-05-16T12:43:19;87048.00;;;12.00
74539;BMP180;66042;51.090;-115.340;2023-05-16T12:45:52;87049.80;;;12.00
74539;BMP180;66042;51.090;-115.340;2023-05-16T12:48:21;87053.80;;;11.98
74539;BMP180;66042;51.090;-115.340;2023-05-16T12:50:48;87055.80;;;12.00
74539;BMP180;66042;51.090;-115.340;2023-05-16T12:53:17;87063.00;;;11.90
74539;BMP180;66042;51.090;-115.340;2023-05-16T12:55:45;87069.20;;;11.90
74539;BMP180;66042;51.090;-115.340;2023-05-16T12:58:11;87065.60;;;11.90
74539;BMP180;66042;51.090;-115.340;2023-05-16T13:00:38;87070.80;;;11.90
74539;BMP180;66042;51.090;-115.340;2023-05-16T13:03:06;87071.80;;;11.90
74539;BMP180;66042;51.090;-115.340;2023-05-16T13:05:34;87069.80;;;11.90
74539;BMP180;66042;51.090;-115.340;2023-05-16T13:08:01;87074.20;;;11.90
74539;BMP180;66042;51.090;-115.340;2023-05-16T13:10:29;87076.20;;;11.90
74539;BMP180;66042;51.090;-115.340;2023-05-16T13:12:55;87082.40;;;11.90
74539;BMP180;66042;51.090;-115.340;2023-05-16T13:15:24;87079.80;;;11.80
74539;BMP180;66042;51.090;-115.340;2023-05-16T13:17:51;87083.60;;;11.80
74539;BMP180;66042;51.090;-115.340;2023-05-16T13:20:18;87090.20;;;11.80
74539;BMP180;66042;51.090;-115.340;2023-05-16T13:22:46;87089.80;;;11.80
74539;BMP180;66042;51.090;-115.340;2023-05-16T13:25:13;87091.00;;;11.80
74539;BMP180;66042;51.090;-115.340;2023-05-16T13:27:40;87094.40;;;11.80
74539;BMP180;66042;51.090;-115.340;2023-05-16T13:30:07;87102.40;;;11.80
74539;BMP180;66042;51.090;-115.340;2023-05-16T13:32:34;87102.00;;;11.80
74539;BMP180;66042;51.090;-115.340;2023-05-16T13:35:01;87102.60;;;11.80
74539;BMP180;66042;51.090;-115.340;2023-05-16T13:37:29;87103.40;;;11.80
74539;BMP180;66042;51.090;-115.340;2023-05-16T13:39:57;87106.20;;;11.80
74539;BMP180;66042;51.090;-115.340;2023-05-16T13:42:24;87112.80;;;11.70
74539;BMP180;66042;51.090;-115.340;2023-05-16T13:44:51;87115.20;;;11.70
74539;BMP180;66042;51.090;-115.340;2023-05-16T13:47:18;87120.00;;;11.76
74539;BMP180;66042;51.090;-115.340;2023-05-16T13:49:45;87118.00;;;11.80
74539;BMP180;66042;51.090;-115.340;2023-05-16T13:52:12;87122.60;;;11.80
74539;BMP180;66042;51.090;-115.340;2023-05-16T13:54:40;87130.60;;;11.80
74539;BMP180;66042;51.090;-115.340;2023-05-16T13:57:07;87138.60;;;11.80
74539;BMP180;66042;51.090;-115.340;2023-05-16T13:59:33;87138.60;;;11.80
74539;BMP180;66042;51.090;-115.340;2023-05-16T14:02:01;87142.40;;;11.82
74539;BMP180;66042;51.090;-115.340;2023-05-16T14:04:28;87147.40;;;11.90